Time;durP1;ratioP1;P1;durP2;ratioP2;P2;SDS_P1;SDS_P2;PMS_P1;PMS_P2;Temp;Humidity;BMP_temperature;BMP_pressure;BME280_temperature;BME280_humidity;BME280_pressure;Samples;Min_cycle;Max_cycle;Signal;HPM_P1;HPM_P2
2022/01/29 00:03:53;;;;;;;21.17;13.80;;;5.00;99.90;;;;;;10343553;28;20224;-74
2022/01/29 00:08:57;;;;;;;23.23;14.67;;;5.00;99.90;;;;;;10360891;28;20229;-75
2022/01/29 00:13:57;;;;;;;19.63;13.77;;;4.90;99.90;;;;;;10344336;28;20698;-75
2022/01/29 00:18:58;;;;;;;21.80;13.83;;;4.90;99.90;;;;;;10349792;28;20234;-75
2022/01/29 00:23:59;;;;;;;20.57;13.57;;;4.90;99.90;;;;;;10348015;28;20252;-75
2022/01/29 00:29:04;;;;;;;18.97;13.33;;;4.90;99.90;;;;;;10356008;28;20248;-75
2022/01/29 00:34:05;;;;;;;19.50;12.57;;;4.90;99.90;;;;;;10343702;28;20228;-74
2022/01/29 00:39:06;;;;;;;19.33;11.90;;;4.90;99.90;;;;;;10360637;28;20706;-75
2022/01/29 00:44:07;;;;;;;18.27;11.47;;;5.00;99.90;;;;;;10351007;28;20244;-76
2022/01/29 00:49:09;;;;;;;18.50;12.20;;;5.00;99.90;;;;;;10360415;28;20221;-74
2022/01/29 00:54:09;;;;;;;20.20;12.33;;;5.00;99.90;;;;;;10369616;28;20225;-75
2022/01/29 00:59:10;;;;;;;19.13;11.73;;;5.00;99.90;;;;;;10364469;28;20275;-74
2022/01/29 01:04:11;;;;;;;18.50;12.33;;;5.00;99.90;;;;;;10364396;28;20298;-76
2022/01/29 01:09:11;;;;;;;17.83;11.80;;;5.00;99.90;;;;;;10362618;28;20217;-75
2022/01/29 01:14:12;;;;;;;19.10;11.80;;;5.00;99.90;;;;;;10352501;28;20213;-74
2022/01/29 01:19:13;;;;;;;18.63;11.30;;;5.00;99.90;;;;;;10367560;28;20269;-74
2022/01/29 01:24:14;;;;;;;17.37;11.87;;;5.00;99.90;;;;;;10359185;28;20232;-75
2022/01/29 01:29:15;;;;;;;15.23;11.50;;;5.00;99.90;;;;;;10355608;28;20282;-74
2022/01/29 01:34:19;;;;;;;18.07;11.60;;;5.00;99.90;;;;;;10358931;28;20233;-76
2022/01/29 01:39:24;;;;;;;19.67;12.23;;;5.00;99.90;;;;;;10360179;28;20218;-75
2022/01/29 01:44:25;;;;;;;20.50;12.57;;;5.00;99.90;;;;;;10363909;28;20238;-75
2022/01/29 01:49:26;;;;;;;18.47;11.37;;;5.00;99.90;;;;;;10359800;28;20217;-75
2022/01/29 01:54:27;;;;;;;19.43;12.50;;;5.00;99.90;;;;;;10359511;28;20252;-75
2022/01/29 01:59:28;;;;;;;20.77;12.50;;;5.10;99.90;;;;;;10351422;28;20235;-75
2022/01/29 02:04:33;;;;;;;20.70;12.23;;;5.00;99.90;;;;;;10357541;28;20225;-75
2022/01/29 02:09:34;;;;;;;19.20;11.50;;;5.00;99.90;;;;;;10354429;28;20301;-76
2022/01/29 02:14:35;;;;;;;19.93;12.07;;;5.00;99.90;;;;;;10357364;28;20756;-75
2022/01/29 02:19:36;;;;;;;20.33;12.50;;;5.00;99.90;;;;;;10356207;28;20674;-75
2022/01/29 02:24:39;;;;;;;19.10;11.83;;;5.00;99.90;;;;;;10354058;28;20317;-75
2022/01/29 02:29:44;;;;;;;19.00;11.47;;;5.00;99.90;;;;;;10366083;28;20332;-75
2022/01/29 02:34:45;;;;;;;17.97;11.77;;;5.00;99.90;;;;;;10345633;28;20239;-74
2022/01/29 02:39:46;;;;;;;16.27;11.20;;;5.00;99.90;;;;;;10352113;28;20217;-74
2022/01/29 02:44:47;;;;;;;17.53;12.33;;;5.00;99.90;;;;;;10336050;28;20221;-75
2022/01/29 02:49:47;;;;;;;15.23;10.70;;;4.90;99.90;;;;;;10360023;28;20221;-74
2022/01/29 02:54:48;;;;;;;17.57;10.70;;;4.90;99.90;;;;;;10345164;28;20230;-75
2022/01/29 02:59:52;;;;;;;14.83;10.17;;;4.90;99.90;;;;;;10333507;28;20643;-75
2022/01/29 03:04:54;;;;;;;13.70;10.03;;;4.90;99.90;;;;;;10359440;28;20214;-76
2022/01/29 03:09:55;;;;;;;16.30;10.03;;;5.00;99.90;;;;;;10355864;28;20654;-75
2022/01/29 03:14:55;;;;;;;16.47;10.40;;;4.90;99.90;;;;;;10349657;28;20269;-76
2022/01/29 03:19:56;;;;;;;14.57;10.27;;;4.90;99.90;;;;;;10358637;28;20213;-75
2022/01/29 03:24:57;;;;;;;17.47;10.53;;;5.00;99.90;;;;;;10363039;28;20222;-74
2022/01/29 03:29:58;;;;;;;15.00;9.90;;;5.00;99.90;;;;;;10360404;28;20248;-75
2022/01/29 03:34:58;;;;;;;18.87;10.20;;;5.00;99.90;;;;;;10356141;28;20252;-75
2022/01/29 03:40:02;;;;;;;16.23;10.10;;;5.00;99.90;;;;;;10357704;28;20774;-75
2022/01/29 03:45:06;;;;;;;18.50;11.53;;;5.00;99.90;;;;;;10350367;28;20225;-73
2022/01/29 03:50:07;;;;;;;17.30;10.53;;;5.00;99.90;;;;;;10355186;28;20291;-75
2022/01/29 03:55:08;;;;;;;16.20;10.97;;;5.00;99.90;;;;;;10348779;28;20340;-75
2022/01/29 04:00:13;;;;;;;14.97;10.63;;;5.00;99.90;;;;;;10319615;28;1100289;-74
2022/01/29 04:05:13;;;;;;;15.57;10.43;;;5.00;99.90;;;;;;10349091;28;20591;-74
2022/01/29 04:10:15;;;;;;;13.20;9.53;;;5.00;99.90;;;;;;10354777;28;20240;-75
2022/01/29 04:15:16;;;;;;;19.20;11.77;;;5.00;99.90;;;;;;10355305;28;20212;-74
2022/01/29 04:20:17;;;;;;;19.17;11.73;;;5.00;99.90;;;;;;10348693;28;20292;-75
2022/01/29 04:25:18;;;;;;;21.67;12.50;;;5.00;99.90;;;;;;10353974;28;20194;-75
2022/01/29 04:30:30;;;;;;;17.87;12.27;;;5.00;99.90;;;;;;10356918;28;20223;-74
2022/01/29 04:35:32;;;;;;;19.73;11.73;;;5.00;99.90;;;;;;10350201;28;20257;-75
2022/01/29 04:40:35;;;;;;;17.30;11.53;;;5.00;99.90;;;;;;10342079;28;20226;-74
2022/01/29 04:45:35;;;;;;;17.47;11.57;;;5.10;99.90;;;;;;10355144;28;20221;-75
2022/01/29 04:50:36;;;;;;;18.70;11.90;;;5.10;99.90;;;;;;10350152;28;20217;-75
2022/01/29 04:55:38;;;;;;;20.07;12.83;;;5.10;99.90;;;;;;10346042;28;20313;-75
2022/01/29 05:00:38;;;;;;;19.07;12.40;;;5.10;99.90;;;;;;10348879;28;20230;-74
2022/01/29 05:05:41;;;;;;;17.33;11.40;;;5.10;99.90;;;;;;10355945;28;20295;-75
2022/01/29 05:10:41;;;;;;;19.10;11.47;;;5.00;99.90;;;;;;10356619;28;20344;-76
2022/01/29 05:31:38;;;;;;;17.57;11.07;;;5.00;99.90;;;;;;10360048;28;20221;-75
2022/01/29 05:36:39;;;;;;;17.43;11.23;;;5.00;99.90;;;;;;10348155;28;20323;-75
2022/01/29 05:41:40;;;;;;;18.00;11.90;;;5.00;99.90;;;;;;10362579;28;20309;-75
2022/01/29 05:46:41;;;;;;;17.13;11.13;;;4.90;99.90;;;;;;10363527;28;20751;-76
2022/01/29 05:51:44;;;;;;;17.77;11.17;;;4.90;99.90;;;;;;10355058;28;20219;-75
2022/01/29 05:56:45;;;;;;;19.93;12.03;;;4.90;99.90;;;;;;10362273;28;20229;-75
2022/01/29 06:01:46;;;;;;;19.37;11.97;;;4.90;99.90;;;;;;10357080;28;20322;-75
2022/01/29 06:06:46;;;;;;;17.83;10.90;;;4.90;99.90;;;;;;10358417;28;20316;-75
2022/01/29 06:11:47;;;;;;;17.67;11.80;;;4.90;99.90;;;;;;10351129;28;20670;-74
2022/01/29 06:16:50;;;;;;;16.33;11.03;;;4.90;99.90;;;;;;10351287;28;20603;-75
2022/01/29 06:21:51;;;;;;;21.57;12.10;;;4.90;99.90;;;;;;10342490;28;20277;-75
2022/01/29 06:26:51;;;;;;;17.07;10.33;;;4.90;99.90;;;;;;10357966;28;20218;-74
2022/01/29 06:31:52;;;;;;;17.97;11.10;;;4.90;99.90;;;;;;10350706;28;20229;-73
2022/01/29 06:36:53;;;;;;;16.47;10.93;;;4.90;99.90;;;;;;10349759;28;20316;-74
2022/01/29 06:41:53;;;;;;;17.53;11.37;;;4.90;99.90;;;;;;10357663;28;20217;-75
2022/01/29 06:46:54;;;;;;;17.37;11.40;;;4.90;99.90;;;;;;10348563;28;20313;-75
2022/01/29 06:51:54;;;;;;;16.73;10.70;;;4.90;99.90;;;;;;10348126;28;20356;-74
2022/01/29 06:56:55;;;;;;;18.33;11.93;;;4.90;99.90;;;;;;10356255;28;20231;-75
2022/01/29 07:01:56;;;;;;;16.90;10.93;;;4.90;99.90;;;;;;10348363;28;20229;-75
2022/01/29 07:06:56;;;;;;;16.47;10.73;;;4.90;99.90;;;;;;10355789;28;20217;-73
2022/01/29 07:12:07;;;;;;;17.80;10.90;;;5.00;99.90;;;;;;10351663;28;20213;-75
2022/01/29 07:17:12;;;;;;;15.57;10.87;;;4.90;99.90;;;;;;10352933;28;20233;-74
2022/01/29 07:22:14;;;;;;;16.50;11.87;;;4.90;99.90;;;;;;10353487;28;20275;-74
2022/01/29 07:27:15;;;;;;;15.97;10.00;;;4.90;99.90;;;;;;10356286;28;20301;-74
2022/01/29 07:32:19;;;;;;;13.03;9.30;;;5.00;99.90;;;;;;10352179;28;20221;-74
2022/01/29 07:37:19;;;;;;;12.67;9.50;;;5.00;99.90;;;;;;10356344;28;20694;-75
2022/01/29 07:42:20;;;;;;;14.80;9.17;;;5.00;99.90;;;;;;10351908;28;20217;-74
2022/01/29 07:47:21;;;;;;;14.37;10.10;;;5.00;99.90;;;;;;10354990;28;20275;-75
2022/01/29 07:52:21;;;;;;;15.67;9.60;;;5.00;99.90;;;;;;10357407;28;20731;-74
2022/01/29 07:57:22;;;;;;;14.40;9.10;;;5.00;99.90;;;;;;10353552;28;20279;-74
2022/01/29 08:02:23;;;;;;;14.70;9.30;;;5.00;99.90;;;;;;10349268;28;20241;-76
2022/01/29 08:07:27;;;;;;;14.60;9.67;;;5.00;99.90;;;;;;10350586;28;20292;-74
2022/01/29 08:12:27;;;;;;;14.67;9.07;;;5.10;99.90;;;;;;10350849;28;20297;-74
2022/01/29 08:17:31;;;;;;;13.50;8.17;;;5.10;99.90;;;;;;10350336;28;20279;-76
2022/01/29 08:22:32;;;;;;;13.00;8.00;;;5.20;99.90;;;;;;10348358;28;20222;-75
2022/01/29 08:27:32;;;;;;;11.67;7.43;;;5.30;99.90;;;;;;10352087;28;20217;-75
2022/01/29 08:32:40;;;;;;;12.67;7.67;;;5.40;99.90;;;;;;10349644;28;20222;-75
2022/01/29 08:37:41;;;;;;;10.30;6.73;;;5.40;99.90;;;;;;10351883;28;20236;-76
2022/01/29 08:42:42;;;;;;;9.60;6.77;;;5.50;99.90;;;;;;10346234;28;20218;-76
2022/01/29 08:47:43;;;;;;;11.17;7.20;;;5.40;99.90;;;;;;10355642;28;20214;-74
2022/01/29 08:52:43;;;;;;;9.77;6.37;;;5.40;99.90;;;;;;10353708;28;20221;-75
2022/01/29 08:57:45;;;;;;;11.47;6.17;;;5.40;99.90;;;;;;10356750;28;20236;-76
2022/01/29 09:02:46;;;;;;;10.63;6.73;;;5.40;99.90;;;;;;10355464;28;20221;-76
2022/01/29 09:07:50;;;;;;;10.87;6.73;;;5.30;99.90;;;;;;10357935;28;20221;-74
2022/01/29 09:12:50;;;;;;;9.40;6.23;;;5.30;99.90;;;;;;10353827;28;20226;-76
2022/01/29 09:17:51;;;;;;;8.13;5.77;;;5.40;99.90;;;;;;10353351;28;20641;-77
2022/01/29 09:22:52;;;;;;;8.00;5.93;;;5.50;99.90;;;;;;10361266;28;20217;-77
2022/01/29 09:27:53;;;;;;;7.20;5.70;;;5.60;99.90;;;;;;10351310;28;20637;-75
2022/01/29 09:32:53;;;;;;;8.03;4.80;;;5.60;99.90;;;;;;10346063;28;20725;-77
2022/01/29 09:37:54;;;;;;;6.00;4.67;;;5.60;99.90;;;;;;10360570;28;20225;-77
2022/01/29 09:42:56;;;;;;;5.30;3.60;;;5.70;99.90;;;;;;10352429;28;20272;-78
2022/01/29 09:48:02;;;;;;;4.17;2.83;;;5.80;99.90;;;;;;10370165;28;20225;-78
2022/01/29 09:53:05;;;;;;;2.50;2.30;;;5.90;99.90;;;;;;10344862;28;20245;-77
2022/01/29 09:58:06;;;;;;;3.70;2.60;;;6.10;99.90;;;;;;10359944;28;20245;-77
2022/01/29 10:03:09;;;;;;;3.13;2.33;;;6.20;99.90;;;;;;10358977;28;20225;-76
2022/01/29 10:08:12;;;;;;;3.03;2.70;;;6.30;99.90;;;;;;10362356;28;20221;-77
2022/01/29 10:13:32;;;;;;;4.37;2.67;;;6.30;99.90;;;;;;10362330;28;20222;-76
2022/01/29 10:18:35;;;;;;;2.97;1.93;;;6.30;99.90;;;;;;10359955;28;20629;-75
2022/01/29 10:23:40;;;;;;;3.73;2.30;;;6.30;99.90;;;;;;10353073;28;20308;-74
2022/01/29 10:28:40;;;;;;;2.33;2.13;;;6.50;99.90;;;;;;10355741;28;20228;-75
2022/01/29 10:33:42;;;;;;;3.10;2.30;;;6.60;99.90;;;;;;10352320;28;20313;-75
2022/01/29 10:38:43;;;;;;;2.00;1.80;;;6.60;99.90;;;;;;10343779;28;20696;-75
2022/01/29 10:44:11;;;;;;;2.47;1.97;;;6.50;99.90;;;;;;10356885;28;20245;-75
2022/01/29 10:49:21;;;;;;;2.00;1.63;;;6.50;99.90;;;;;;10353062;28;20711;-75
2022/01/29 10:54:22;;;;;;;4.10;1.80;;;6.50;99.90;;;;;;10353663;28;20222;-74
2022/01/29 10:59:24;;;;;;;1.80;1.50;;;6.50;99.90;;;;;;10346779;28;20244;-75
2022/01/29 11:04:27;;;;;;;3.53;1.60;;;6.60;99.90;;;;;;10360010;28;20272;-75
2022/01/29 11:09:29;;;;;;;1.53;1.43;;;6.60;99.90;;;;;;10357573;28;20249;-75
2022/01/29 11:14:31;;;;;;;1.70;1.40;;;6.60;99.90;;;;;;10356116;28;20297;-73
2022/01/29 11:19:33;;;;;;;2.00;1.80;;;6.50;99.90;;;;;;10350671;28;20221;-75
2022/01/29 11:24:35;;;;;;;1.83;1.53;;;6.50;99.90;;;;;;10349086;28;20233;-75
2022/01/29 11:29:36;;;;;;;2.90;1.50;;;6.60;99.90;;;;;;10349265;28;20230;-75
2022/01/29 11:34:56;;;;;;;1.87;1.63;;;6.60;99.90;;;;;;10356509;28;20225;-75
2022/01/29 11:40:21;;;;;;;1.73;1.63;;;6.70;99.90;;;;;;10347174;28;20245;-74
2022/01/29 11:45:44;;;;;;;2.20;1.90;;;6.60;99.90;;;;;;10347777;28;20756;-76
2022/01/29 11:50:46;;;;;;;2.23;1.97;;;6.70;99.90;;;;;;10354551;28;20276;-74
2022/01/29 11:55:48;;;;;;;4.93;3.50;;;6.80;99.90;;;;;;10352695;28;20241;-75
2022/01/29 12:00:51;;;;;;;5.10;4.20;;;6.70;99.90;;;;;;10352487;28;20229;-74
2022/01/29 12:06:33;;;;;;;7.27;4.87;;;6.60;99.90;;;;;;10355077;28;20221;-74
2022/01/29 12:11:41;;;;;;;7.83;4.93;;;6.50;99.90;;;;;;10350794;28;20217;-74
2022/01/29 12:16:59;;;;;;;7.23;4.97;;;6.40;99.90;;;;;;10350587;28;20220;-75
2022/01/29 12:22:00;;;;;;;6.73;5.00;;;6.40;99.90;;;;;;10347288;28;20331;-75
2022/01/29 12:27:01;;;;;;;6.00;4.83;;;6.40;99.90;;;;;;10347657;28;20218;-76
2022/01/29 12:32:02;;;;;;;5.73;4.27;;;6.40;99.90;;;;;;10350971;28;20593;-75
2022/01/29 12:37:10;;;;;;;6.87;5.00;;;6.50;99.90;;;;;;10339189;28;20225;-74
2022/01/29 12:47:26;;;;;;;5.70;4.60;;;6.60;99.90;;;;;;10354217;28;20231;-75
2022/01/29 12:52:30;;;;;;;4.37;3.90;;;6.60;99.90;;;;;;10355472;28;20253;-74
2022/01/29 12:57:45;;;;;;;4.83;4.13;;;6.60;99.90;;;;;;10361823;28;20321;-75
2022/01/29 13:02:46;;;;;;;5.67;3.47;;;6.50;99.90;;;;;;10363943;28;20291;-77
2022/01/29 13:07:49;;;;;;;5.03;3.80;;;6.50;99.90;;;;;;10362214;28;20226;-75
2022/01/29 13:12:49;;;;;;;6.43;4.70;;;6.50;99.90;;;;;;10363012;28;20221;-75
2022/01/29 13:17:50;;;;;;;10.07;5.63;;;6.50;99.90;;;;;;10361458;28;20233;-76
2022/01/29 13:22:51;;;;;;;8.17;6.23;;;6.40;99.90;;;;;;10367284;28;20217;-75
2022/01/29 13:28:13;;;;;;;7.50;5.80;;;6.30;99.90;;;;;;10370749;28;20228;-74
2022/01/29 13:33:21;;;;;;;8.13;5.67;;;6.20;99.90;;;;;;10364251;28;20225;-75
2022/01/29 13:38:34;;;;;;;5.87;4.50;;;6.20;99.90;;;;;;10353656;28;20300;-75
2022/01/29 13:43:36;;;;;;;6.33;4.90;;;6.10;99.90;;;;;;10356122;28;20229;-76
2022/01/29 13:48:51;;;;;;;6.53;4.77;;;6.20;99.90;;;;;;10352206;28;20291;-76
2022/01/29 13:53:55;;;;;;;5.33;4.70;;;6.30;99.90;;;;;;10361718;28;20221;-76
2022/01/29 13:59:04;;;;;;;5.40;4.10;;;6.30;99.90;;;;;;10343591;28;20295;-75
2022/01/29 14:04:08;;;;;;;5.53;4.37;;;6.30;99.90;;;;;;10356512;28;20234;-76
2022/01/29 14:09:23;;;;;;;6.60;4.53;;;6.30;99.90;;;;;;10354988;28;20309;-75
2022/01/29 14:14:54;;;;;;;5.07;4.00;;;6.30;99.90;;;;;;10359977;28;20217;-77
2022/01/29 14:19:57;;;;;;;4.63;3.60;;;6.30;99.90;;;;;;10350112;28;20804;-78
2022/01/29 14:25:00;;;;;;;5.73;3.97;;;6.30;99.90;;;;;;10360495;28;20218;-77
2022/01/29 14:30:01;;;;;;;4.90;3.50;;;6.40;99.90;;;;;;10350124;28;20237;-77
2022/01/29 14:35:06;;;;;;;4.27;3.07;;;6.40;99.90;;;;;;10357573;28;20260;-76
2022/01/29 14:40:10;;;;;;;4.83;3.30;;;6.40;99.90;;;;;;10351870;28;20226;-77
2022/01/29 14:45:13;;;;;;;4.43;3.50;;;6.40;99.90;;;;;;10353561;28;20204;-75
2022/01/29 14:50:16;;;;;;;4.97;4.30;;;6.50;99.90;;;;;;10358966;28;20869;-77
2022/01/29 14:55:16;;;;;;;6.43;4.20;;;6.50;99.90;;;;;;10356668;28;20301;-77
2022/01/29 15:00:18;;;;;;;6.60;4.30;;;6.40;99.90;;;;;;10353104;28;20201;-77
2022/01/29 15:05:20;;;;;;;4.67;3.90;;;6.40;99.90;;;;;;10351417;28;20671;-77
2022/01/29 15:10:20;;;;;;;4.17;3.20;;;6.40;99.90;;;;;;10354822;28;20231;-77
2022/01/29 15:15:21;;;;;;;3.80;3.30;;;6.50;99.90;;;;;;10347984;28;20209;-78
2022/01/29 15:20:22;;;;;;;4.57;3.70;;;6.50;99.90;;;;;;10350335;28;20174;-74
2022/01/29 15:25:23;;;;;;;4.63;2.80;;;6.60;99.90;;;;;;10358648;28;20280;-74
2022/01/29 15:30:24;;;;;;;3.83;3.00;;;6.60;99.90;;;;;;10345437;28;20221;-75
2022/01/29 15:35:24;;;;;;;3.47;2.43;;;6.70;99.90;;;;;;10354357;28;20225;-75
2022/01/29 15:40:28;;;;;;;2.20;1.77;;;6.80;99.90;;;;;;10345737;28;20232;-75
2022/01/29 15:45:30;;;;;;;2.57;2.37;;;6.80;99.90;;;;;;10347341;28;20225;-75
2022/01/29 15:50:30;;;;;;;4.20;3.50;;;6.90;99.90;;;;;;10356287;28;20230;-74
2022/01/29 15:55:35;;;;;;;4.37;3.87;;;6.80;99.90;;;;;;10357986;28;20229;-75
2022/01/29 16:00:39;;;;;;;6.60;4.30;;;6.60;99.90;;;;;;10346477;28;20234;-74
2022/01/29 16:05:39;;;;;;;4.93;3.67;;;6.50;99.90;;;;;;10351272;28;20701;-75
2022/01/29 16:10:40;;;;;;;4.17;2.93;;;6.40;99.90;;;;;;10347942;28;20252;-74
2022/01/29 16:15:41;;;;;;;3.23;2.60;;;6.40;99.90;;;;;;10352139;28;20232;-75
2022/01/29 16:20:43;;;;;;;2.13;1.90;;;6.40;99.90;;;;;;10344222;28;20237;-75
2022/01/29 16:25:44;;;;;;;4.53;2.37;;;6.50;99.90;;;;;;10351482;28;20296;-75
2022/01/29 16:30:45;;;;;;;3.10;2.20;;;6.60;99.90;;;;;;10344180;28;20291;-75
2022/01/29 16:35:46;;;;;;;2.40;2.10;;;6.70;99.90;;;;;;10345095;28;20268;-74
2022/01/29 16:40:47;;;;;;;2.57;2.13;;;6.80;99.90;;;;;;10352714;28;20223;-74
2022/01/29 16:45:48;;;;;;;3.47;2.20;;;6.80;99.90;;;;;;10345980;28;20631;-74
2022/01/29 16:50:51;;;;;;;2.30;2.10;;;6.80;99.90;;;;;;10353391;28;20252;-75
2022/01/29 16:55:54;;;;;;;1.67;1.57;;;6.80;99.90;;;;;;10345635;28;20229;-75
2022/01/29 17:00:55;;;;;;;1.37;1.30;;;6.80;99.90;;;;;;10350222;28;20317;-74
2022/01/29 17:05:56;;;;;;;1.30;1.00;;;6.90;99.90;;;;;;10352969;28;20300;-74
2022/01/29 17:10:56;;;;;;;1.83;1.60;;;7.00;99.90;;;;;;10360619;28;20244;-75
2022/01/29 17:15:57;;;;;;;1.80;1.53;;;7.10;99.90;;;;;;10345778;28;20230;-74
2022/01/29 17:20:58;;;;;;;4.00;3.37;;;7.10;99.90;;;;;;10353188;28;20736;-75
2022/01/29 17:26:03;;;;;;;1.23;1.13;;;7.10;99.90;;;;;;10346603;28;20607;-75
2022/01/29 17:31:05;;;;;;;1.60;1.50;;;7.10;99.90;;;;;;10361476;28;20252;-74
2022/01/29 17:36:06;;;;;;;1.30;1.20;;;7.10;99.90;;;;;;10358551;28;20272;-75
2022/01/29 17:41:07;;;;;;;1.70;1.27;;;7.20;99.90;;;;;;10360025;28;20808;-74
2022/01/29 17:46:08;;;;;;;1.27;0.97;;;7.20;99.90;;;;;;10352266;28;20249;-75
2022/01/29 17:51:09;;;;;;;1.30;1.20;;;7.10;99.90;;;;;;10353292;28;20655;-75
2022/01/29 17:56:09;;;;;;;1.57;1.47;;;7.10;99.90;;;;;;10360143;28;20308;-75
2022/01/29 18:01:11;;;;;;;1.57;1.47;;;7.00;99.90;;;;;;10362155;28;20352;-74
2022/01/29 18:06:12;;;;;;;2.23;1.50;;;7.00;99.90;;;;;;10357808;28;20229;-74
2022/01/29 18:11:13;;;;;;;1.80;1.70;;;6.90;99.90;;;;;;10360699;28;20225;-75
2022/01/29 18:16:13;;;;;;;1.83;1.73;;;6.80;99.90;;;;;;10357011;28;20226;-74
2022/01/29 18:21:14;;;;;;;1.93;1.50;;;6.80;99.90;;;;;;10358558;28;20260;-75
2022/01/29 18:26:16;;;;;;;1.37;1.27;;;6.70;99.90;;;;;;10349948;28;20230;-75
2022/01/29 18:31:16;;;;;;;1.40;1.30;;;6.70;99.90;;;;;;10350994;28;20226;-75
2022/01/29 18:36:17;;;;;;;2.30;2.10;;;6.70;99.90;;;;;;10356417;28;20292;-76
2022/01/29 18:41:18;;;;;;;1.87;1.77;;;6.60;99.90;;;;;;10338997;28;20249;-75
2022/01/29 18:46:20;;;;;;;1.73;1.63;;;6.60;99.90;;;;;;10354873;28;20229;-75
2022/01/29 18:51:20;;;;;;;2.33;1.77;;;6.60;99.90;;;;;;10359713;28;20225;-77
2022/01/29 18:56:23;;;;;;;1.93;1.83;;;6.70;99.90;;;;;;10358147;28;20237;-75
2022/01/29 19:01:24;;;;;;;2.50;2.30;;;6.60;99.90;;;;;;10350035;28;20230;-74
2022/01/29 19:06:25;;;;;;;2.00;1.90;;;6.50;99.90;;;;;;10356586;28;20225;-76
2022/01/29 19:11:28;;;;;;;1.97;1.77;;;6.50;99.90;;;;;;10356617;28;20232;-75
2022/01/29 19:16:29;;;;;;;2.07;1.90;;;6.50;99.90;;;;;;10353034;28;20637;-75
2022/01/29 19:21:29;;;;;;;2.03;1.93;;;6.40;99.90;;;;;;10365709;28;20308;-75
2022/01/29 19:26:30;;;;;;;2.13;1.70;;;6.50;99.90;;;;;;10360325;28;20225;-74
2022/01/29 19:31:31;;;;;;;1.93;1.83;;;6.50;99.90;;;;;;10358807;28;20222;-74
2022/01/29 19:36:32;;;;;;;1.73;1.30;;;6.50;99.90;;;;;;10352557;28;20376;-74
2022/01/29 19:41:33;;;;;;;1.73;1.40;;;6.50;99.90;;;;;;10353698;28;20714;-75
2022/01/29 19:46:33;;;;;;;2.83;2.00;;;6.50;99.90;;;;;;10352063;28;20304;-75
2022/01/29 19:51:37;;;;;;;1.97;1.67;;;6.60;99.90;;;;;;10356668;28;20224;-75
2022/01/29 19:56:37;;;;;;;2.23;1.33;;;6.60;99.90;;;;;;10355746;28;20230;-74
2022/01/29 20:01:38;;;;;;;1.33;1.23;;;6.60;99.90;;;;;;10351600;28;20237;-75
2022/01/29 20:06:39;;;;;;;2.20;2.00;;;6.70;99.90;;;;;;10346583;28;20233;-75
2022/01/29 20:11:39;;;;;;;1.30;1.20;;;6.70;99.90;;;;;;10349590;28;20313;-75
2022/01/29 20:16:41;;;;;;;1.37;1.23;;;6.70;99.90;;;;;;10362816;28;20233;-74
2022/01/29 20:21:41;;;;;;;1.20;1.10;;;6.70;99.90;;;;;;10354100;28;20898;-74
2022/01/29 20:26:42;;;;;;;0.83;0.83;;;6.70;99.90;;;;;;10347535;28;20253;-74
2022/01/29 20:31:43;;;;;;;1.30;1.20;;;6.70;99.90;;;;;;10360477;28;20599;-75
2022/01/29 20:36:44;;;;;;;1.47;1.37;;;6.60;99.90;;;;;;10346587;28;20229;-75
2022/01/29 20:41:44;;;;;;;1.10;1.00;;;6.70;99.90;;;;;;10352759;28;20355;-76
2022/01/29 20:46:45;;;;;;;0.80;0.80;;;6.70;99.90;;;;;;10346509;28;20230;-75
2022/01/29 20:51:46;;;;;;;1.10;1.00;;;6.70;99.90;;;;;;10352383;28;20312;-75
2022/01/29 20:56:46;;;;;;;0.90;0.90;;;6.80;99.90;;;;;;10350296;28;20284;-75
2022/01/29 21:01:47;;;;;;;1.70;0.93;;;6.70;99.90;;;;;;10353836;28;20736;-75
2022/01/29 21:06:50;;;;;;;0.90;0.90;;;6.70;99.90;;;;;;10336109;28;20233;-74
2022/01/29 21:11:50;;;;;;;0.80;0.80;;;6.70;99.90;;;;;;10353760;28;20218;-74
2022/01/29 21:16:51;;;;;;;1.30;1.20;;;6.70;99.90;;;;;;10362593;28;20439;-75
2022/01/29 21:21:52;;;;;;;1.17;0.80;;;6.80;99.90;;;;;;10353190;28;20222;-75
2022/01/29 21:27:01;;;;;;;1.30;1.00;;;6.80;99.90;;;;;;10367367;28;20253;-75
2022/01/29 21:32:03;;;;;;;0.80;0.80;;;6.80;99.90;;;;;;10376444;28;20343;-74
2022/01/29 21:37:08;;;;;;;1.03;0.93;;;6.80;99.90;;;;;;10360695;28;20232;-75
2022/01/29 21:42:09;;;;;;;1.03;0.93;;;7.00;99.90;;;;;;10362890;28;20291;-76
2022/01/29 21:47:10;;;;;;;0.80;0.80;;;7.00;99.90;;;;;;10358294;28;20300;-76
2022/01/29 21:52:11;;;;;;;0.80;0.70;;;7.00;99.90;;;;;;10359641;28;20722;-75
2022/01/29 21:57:16;;;;;;;1.67;1.23;;;7.00;99.90;;;;;;10355202;28;21342;-76
2022/01/29 22:02:17;;;;;;;1.80;1.20;;;7.00;99.90;;;;;;10352373;28;20229;-75
2022/01/29 22:07:18;;;;;;;1.90;1.80;;;7.00;99.90;;;;;;10360284;28;20253;-75
2022/01/29 22:12:19;;;;;;;1.60;1.50;;;7.00;99.90;;;;;;10354454;28;20309;-76
2022/01/29 22:17:20;;;;;;;2.00;1.90;;;6.90;99.90;;;;;;10343355;28;20229;-75
2022/01/29 22:22:20;;;;;;;1.90;1.80;;;7.00;99.90;;;;;;10356292;28;20220;-74
2022/01/29 22:27:23;;;;;;;2.07;1.73;;;6.90;99.90;;;;;;10357612;28;20373;-76
2022/01/29 22:32:24;;;;;;;2.20;2.10;;;7.00;99.90;;;;;;10356810;28;20221;-75
2022/01/29 22:37:30;;;;;;;2.30;2.10;;;6.90;99.90;;;;;;10354226;28;20717;-75
2022/01/29 22:42:30;;;;;;;2.83;2.63;;;7.00;99.90;;;;;;10353634;28;20224;-74
2022/01/29 22:47:31;;;;;;;3.90;2.70;;;7.00;99.90;;;;;;10353623;28;20252;-75
2022/01/29 22:52:33;;;;;;;2.80;2.50;;;7.00;99.90;;;;;;10352723;28;20594;-76
2022/01/29 22:57:34;;;;;;;3.10;2.70;;;7.00;99.90;;;;;;10356378;28;20320;-74
2022/01/29 23:02:35;;;;;;;2.70;2.50;;;7.00;99.90;;;;;;10356058;28;20934;-75
2022/01/29 23:07:41;;;;;;;3.40;3.10;;;6.90;99.90;;;;;;10363481;28;20237;-76
2022/01/29 23:12:56;;;;;;;5.73;3.47;;;6.90;99.90;;;;;;10365550;28;20225;-75
2022/01/29 23:17:57;;;;;;;4.20;3.50;;;6.90;99.90;;;;;;10343131;28;20228;-75
2022/01/29 23:23:15;;;;;;;3.97;2.40;;;6.90;99.90;;;;;;10358095;28;20225;-75
2022/01/29 23:28:29;;;;;;;5.33;2.30;;;7.00;99.90;;;;;;10356976;28;20217;-75
2022/01/29 23:38:31;;;;;;;6.17;2.87;;;6.90;99.90;;;;;;10357344;28;20245;-75
2022/01/29 23:53:52;;;;;;;8.67;3.67;;;7.10;99.90;;;;;;10358137;28;20224;-74
2022/01/29 23:58:53;;;;;;;7.07;2.50;;;7.10;99.90;;;;;;10357622;28;20279;-75
